Sunday, December 17, 2017, 10:04 PM EST

KNHK, Nas Patuxent River Md

Location: Patuxent River, MD, United States Lat: 38.3
Local Time: 10:04 PM EST ( 3:04 GMT) Lon: -76.4
Time Zone: US/Eastern Elev: 39 ft

Show me the last for .
Show Decoded

2017-12-17 21:52 METAR KNHK 180252Z AUTO 00000KT 10SM OVC075 06/04 A3017 RMK AO2 SLP215 60000
                 T00610044 57016 VISNO RY24 $ =
2017-12-17 20:52 METAR KNHK 180152Z AUTO 15004KT 7SM OVC080 06/06 A3018 RMK AO2 RAE00 SLP219
                 P0000 T00610056 VISNO RY24 $ =
2017-12-17 19:52 METAR KNHK 180052Z AUTO 12004KT 7SM -RA OVC065 06/05 A3020 RMK AO2 RAB36 SLP227
                 P0000 T00610050 VISNO RY24 $ =
2017-12-17 18:52 METAR KNHK 172352Z AUTO 13004KT 10SM FEW080 OVC100 07/04 A3021 RMK AO2 SLP231
                 T00670044 10078 20056 50009 VISNO RY24 $ =
2017-12-17 17:52 METAR KNHK 172252Z 11003KT 10SM OVC110 07/04 A3022 RMK AO2 SLP232 T00670044
                 VISNO RY24 $ =
2017-12-17 16:52 METAR KNHK 172152Z 14005KT 10SM OVC110 07/04 A3018 RMK AO2 SLP221 T00720039
                 VISNO RY24 $ =
2017-12-17 15:52 METAR KNHK 172052Z 14006KT 10SM OVC130 07/04 A3019 RMK AO2 SLP222 T00720039
                 56014 VISNO RY24 $ =
2017-12-17 14:52 METAR KNHK 171952Z 15006KT 10SM OVC110 07/03 A3020 RMK AO2 SLP225 T00670028
                 VISNO RY24 $ =
2017-12-17 13:52 METAR KNHK 171852Z 13005KT 10SM FEW055 OVC120 07/02 A3020 RMK AO2 SLP227
                 T00720017 VISNO RY24 $ =
2017-12-17 12:52 METAR KNHK 171752Z 11006KT 10SM FEW080 OVC170 08/02 A3023 RMK AO2 SLP236
                 T00830022 10100 21028 58014 VISNO RY24 $ =
2017-12-17 11:52 METAR KNHK 171652Z 00000KT 10SM FEW080 OVC170 09/00 A3026 RMK AO2 SLP246
                 T00890000 VISNO RY24 $ =
2017-12-17 10:52 METAR KNHK 171552Z 28004KT 10SM SCT120 OVC180 07/01 A3028 RMK AO2 SLP255
                 T00670006 VISNO RY24 $ =
2017-12-17 08:52 METAR KNHK 171352Z 00000KT 10SM FEW120 BKN250 01/M01 A3027 RMK AO2 SLP252
                 T00061011 VISNO RY24 $ =
2017-12-17 07:52 METAR KNHK 171252Z 00000KT 10SM SCT120 BKN250 M03/M04 A3026 RMK AO2 SLP248
                 T10281039 VISNO RY24 $ =
2017-12-17 07:25 METAR KNHK 171225Z 00000KT 10SM SCT120 BKN250 M02/M03 A3026 RMK AO2 T10221033
                 VISNO RY24 $ =
2017-12-17 06:52 METAR KNHK 171152Z AUTO 00000KT 10SM CLR M03/M04 A3026 RMK AO2 SLP247 T10281039
                 10006 21033 53006 VISNO RY24 $ =
2017-12-17 05:52 METAR KNHK 171052Z AUTO 25003KT 10SM CLR M03/M04 A3024 RMK AO2 SLP240 T10281039
                 VISNO RY24 $ =
2017-12-17 04:52 METAR KNHK 170952Z AUTO 06003KT 10SM CLR M02/M04 A3023 RMK AO2 SLP238 T10171039
                 VISNO RY24 $ =
2017-12-17 03:52 METAR KNHK 170852Z AUTO 26005KT 10SM CLR M02/M04 A3024 RMK AO2 SLP240 T10221039
                 51010 VISNO RY24 $ =
2017-12-17 02:52 METAR KNHK 170752Z AUTO 27003KT 10SM CLR M02/M04 A3024 RMK AO2 SLP241 T10171039
                 VISNO RY24 $ =
2017-12-17 01:52 METAR KNHK 170652Z AUTO 26004KT 10SM CLR M02/M04 A3023 RMK AO2 SLP237 T10221039
                 VISNO RY24 $ =
2017-12-17 00:52 METAR KNHK 170552Z AUTO 28005KT 10SM CLR 01/M04 A3021 RMK AO2 SLP230 T00061039
                 10056 20006 50006 VISNO RY24 $ =
2017-12-16 23:52 METAR KNHK 170452Z AUTO 27004KT 10SM CLR 03/M03 A3022 RMK AO2 SLP233 T00281033
                 400721050 VISNO RY24 $ =
2017-12-16 22:52 METAR KNHK 170352Z AUTO 23009KT 10SM CLR 04/M04 A3020 RMK AO2 SLP227 T00441039
                 VISNO RY24 $ =

Support USWX by starting your Amazon purchase here.